Main page
METAR-TAF:

METAR-TAF

Airports :

Mount Vernon Airport

Mount Vernon, Illinois, United States

latitude: 38-19N, longitude: 088-52W, elevation: 479 ft

Current weather observation

The report was made 54 minutes ago, at 03:56 UTC
Calm wind
Temperature 75°F
Humidity 83%
Pressure 30.26 in. Hg
Visibility: 10 miles
Clear sky

METAR: KMVN 200356Z AUTO 00000KT 10SM CLR 24/21 A3026 RMK AO2 SLP245 T02440211 PNO $

Time: 23:50 (04:50 UTC)

Forecast

The report was made 5 hours and 30 minutes ago, at 23:20 UTC
Forecast valid from 20 at 00 UTC to 20 at 24 UTC
Wind 7 mph from the South
Visibility: 6 miles
Clear sky
From 20 at 0100 UTC
Wind 0 mph from the North
Visibility: 6 miles
Scattered clouds at a height of 25000 ft
From 20 at 1500 UTC
Wind 5 mph from the South/Southeast
Visibility: 6 miles
Few clouds at a height of 25000 ft

TAF: KMVN 192320Z 2000/2024 17006KT P6SM SKC FM200100 00000KT P6SM SCT250 FM201500 16004KT P6SM FEW250

Weather observations and forecasts of more than 4000 airports (METAR and TAF reports).

The available stations are represented by yellow and red dots on the map.

Hover mouse over dot to see the name of the station.

Then click to see weather observations and forecasts.

To change the map : click on the green buttons with a black cross to zoom in, on the green button with a dash to zoom out, or on the green arrows for adjacent maps.


METAR-TAF: